Terminal Aerodrome Forecast
Issued by NWS Chicago, IL

Home | Current Version | Previous Version | Graphics & Text | Print | Product List | Glossary On
Versions: 1 2 3 4 5 6 7 8 9 10 11 12 13 14 15 16 17 18 19 20 21 22 23 24 25 26 27 28 29 30 31
000
FTUS43 KLOT 292332
TAFRFD
TAF
KRFD 292332Z 3000/3024 VRB05KT P6SM VCTS SCT025 BKN060CB
     FM300100 VRB03KT P6SM BKN035
     FM300330 28005KT 5SM -SHRA BR SCT010 BKN035
     FM300700 VRB03KT 3SM BR VCSH SCT010 BKN020
     FM301400 31009KT P6SM BKN035
     FM301800 33012KT P6SM BKN045=

USA.gov is the U.S. government's official web portal to all federal, state and local government web resources and services.